Time;durP1;ratioP1;P1;durP2;ratioP2;P2;SDS_P1;SDS_P2;PMS_P1;PMS_P2;Temp;Humidity;BMP_temperature;BMP_pressure;BME280_temperature;BME280_humidity;BME280_pressure;Samples;Min_cycle;Max_cycle;Signal;HPM_P1;HPM_P2
2022/01/09 00:00:04;;;;;;;5.35;2.75;;;2.50;90.00;;;;;;4930074;29;20031;-89
2022/01/09 00:02:33;;;;;;;4.82;2.53;;;2.40;90.20;;;;;;4925605;29;20118;-90
2022/01/09 00:04:59;;;;;;;5.53;3.08;;;2.50;90.20;;;;;;4943857;29;20118;-89
2022/01/09 00:07:24;;;;;;;5.18;2.88;;;2.50;90.30;;;;;;4921899;29;20110;-89
2022/01/09 00:09:52;;;;;;;3.88;2.45;;;2.60;90.50;;;;;;4932024;29;20027;-89
2022/01/09 00:12:18;;;;;;;5.57;2.38;;;2.60;90.00;;;;;;4933065;29;20111;-89
2022/01/09 00:14:44;;;;;;;4.13;2.40;;;2.60;90.00;;;;;;4922531;29;20433;-89
2022/01/09 00:17:17;;;;;;;7.72;2.65;;;2.60;89.90;;;;;;4932211;29;20032;-89
2022/01/09 00:19:48;;;;;;;6.28;2.80;;;2.70;89.70;;;;;;4927970;29;20428;-89
2022/01/09 00:22:16;;;;;;;4.68;2.42;;;2.70;89.60;;;;;;4932582;29;20050;-89
2022/01/09 00:24:42;;;;;;;7.10;2.83;;;2.60;89.90;;;;;;4928523;29;20540;-89
2022/01/09 00:27:08;;;;;;;5.07;2.30;;;2.60;90.10;;;;;;4931805;29;20023;-90
2022/01/09 00:29:33;;;;;;;5.75;2.45;;;2.70;90.20;;;;;;4930711;29;20032;-90
2022/01/09 00:31:59;;;;;;;3.13;2.00;;;2.60;90.30;;;;;;4928579;29;20059;-89
2022/01/09 00:34:24;;;;;;;3.90;2.25;;;2.70;90.00;;;;;;4931274;29;20107;-89
2022/01/09 00:36:50;;;;;;;4.60;2.05;;;2.60;90.20;;;;;;4930104;29;20460;-89
2022/01/09 00:39:16;;;;;;;6.22;2.50;;;2.60;90.30;;;;;;4931276;29;20028;-89
2022/01/09 00:41:41;;;;;;;3.58;2.00;;;2.70;90.00;;;;;;4931660;29;20610;-89
2022/01/09 00:44:07;;;;;;;3.63;2.08;;;2.70;90.20;;;;;;4931999;29;20550;-89
2022/01/09 00:46:35;;;;;;;4.00;2.03;;;2.70;90.00;;;;;;4928569;29;20036;-89
2022/01/09 00:49:03;;;;;;;4.00;2.40;;;2.70;90.30;;;;;;4922500;29;20023;-90
2022/01/09 00:51:29;;;;;;;4.63;2.22;;;2.70;90.20;;;;;;4936490;29;20503;-89
2022/01/09 00:53:58;;;;;;;4.07;2.10;;;2.70;90.10;;;;;;4930368;29;20032;-89
2022/01/09 00:56:23;;;;;;;4.28;2.10;;;2.70;89.80;;;;;;4921048;29;20479;-90
2022/01/09 00:58:49;;;;;;;4.57;2.10;;;2.70;90.10;;;;;;4928311;29;20140;-89
2022/01/09 01:01:14;;;;;;;3.28;2.10;;;2.70;89.80;;;;;;4943182;29;20027;-89
2022/01/09 01:03:40;;;;;;;4.25;1.95;;;2.70;90.20;;;;;;4932653;29;20039;-89
2022/01/09 01:06:06;;;;;;;2.95;1.77;;;2.70;90.00;;;;;;4932631;29;20036;-89
2022/01/09 01:08:31;;;;;;;5.38;2.00;;;2.80;90.00;;;;;;4929722;29;20027;-90
2022/01/09 01:10:57;;;;;;;4.80;1.70;;;2.80;89.80;;;;;;4946805;29;20060;-89
2022/01/09 01:13:25;;;;;;;4.25;1.90;;;2.70;89.90;;;;;;4930495;29;20032;-89
2022/01/09 01:15:51;;;;;;;5.53;1.77;;;2.80;89.70;;;;;;4928582;29;20393;-89
2022/01/09 01:18:16;;;;;;;2.30;1.80;;;2.80;89.80;;;;;;4928348;29;20031;-89
2022/01/09 01:20:42;;;;;;;3.75;2.13;;;2.80;89.70;;;;;;4930237;29;20559;-90
2022/01/09 01:23:08;;;;;;;4.32;2.17;;;2.80;89.70;;;;;;4927437;29;20035;-90
2022/01/09 01:25:35;;;;;;;3.25;1.70;;;2.80;89.70;;;;;;4930495;29;20039;-89
2022/01/09 01:28:00;;;;;;;2.13;1.65;;;2.80;89.70;;;;;;4917555;29;20038;-89
2022/01/09 01:30:26;;;;;;;4.15;1.80;;;2.80;89.30;;;;;;4931156;29;20407;-89
2022/01/09 01:32:52;;;;;;;4.63;1.77;;;2.80;89.80;;;;;;4925405;29;20020;-89
2022/01/09 01:35:17;;;;;;;1.88;1.40;;;2.80;89.50;;;;;;4930287;29;20515;-90
2022/01/09 01:37:43;;;;;;;5.78;2.25;;;2.80;89.80;;;;;;4921871;29;20050;-89
2022/01/09 01:40:17;;;;;;;3.03;1.55;;;2.80;89.60;;;;;;4927930;29;20080;-89
2022/01/09 01:42:44;;;;;;;4.95;2.10;;;2.90;89.20;;;;;;4929619;29;20110;-90
2022/01/09 01:45:10;;;;;;;4.30;2.00;;;2.90;89.40;;;;;;4925547;29;20123;-89
2022/01/09 01:47:36;;;;;;;5.75;2.00;;;2.80;89.30;;;;;;4919894;29;20031;-89
2022/01/09 01:50:04;;;;;;;3.80;1.58;;;2.80;89.60;;;;;;4925010;29;20024;-90
2022/01/09 01:52:40;;;;;;;4.10;1.83;;;2.80;89.90;;;;;;4920635;29;20078;-89
2022/01/09 01:55:08;;;;;;;3.95;2.00;;;2.80;89.90;;;;;;4937491;29;20028;-89
2022/01/09 01:57:35;;;;;;;4.50;2.28;;;2.80;90.30;;;;;;4918944;29;20047;-89
2022/01/09 02:00:02;;;;;;;4.55;2.10;;;2.70;90.60;;;;;;4927482;29;20104;-90
2022/01/09 02:02:28;;;;;;;4.53;2.15;;;2.70;91.00;;;;;;4932505;29;20024;-89
2022/01/09 02:04:54;;;;;;;4.05;1.83;;;2.70;91.20;;;;;;4930664;29;20039;-89
2022/01/09 02:07:20;;;;;;;4.18;2.08;;;2.60;91.20;;;;;;4929389;29;20514;-90
2022/01/09 02:09:45;;;;;;;4.95;2.38;;;2.60;91.30;;;;;;4931523;29;20040;-89
2022/01/09 02:12:11;;;;;;;5.72;2.20;;;2.60;91.50;;;;;;4931234;29;20162;-89
2022/01/09 02:14:38;;;;;;;4.20;2.35;;;2.60;91.80;;;;;;4927783;29;20404;-89
2022/01/09 02:17:05;;;;;;;4.60;2.25;;;2.60;91.90;;;;;;4931162;29;20034;-89
2022/01/09 02:19:31;;;;;;;5.90;2.53;;;2.60;92.00;;;;;;4931437;29;20042;-89
2022/01/09 02:21:59;;;;;;;4.75;2.78;;;2.60;91.90;;;;;;4926337;29;20040;-89
2022/01/09 02:24:25;;;;;;;4.72;2.30;;;2.60;92.00;;;;;;4923497;29;20142;-90
2022/01/09 02:26:51;;;;;;;4.35;2.75;;;2.60;92.00;;;;;;4927757;29;20448;-90
2022/01/09 02:29:17;;;;;;;5.03;3.08;;;2.60;92.00;;;;;;4930432;29;20040;-90
2022/01/09 02:31:46;;;;;;;9.15;3.53;;;2.60;92.10;;;;;;4930806;29;20604;-90
2022/01/09 02:34:12;;;;;;;3.83;2.55;;;2.60;92.20;;;;;;4938594;29;20479;-90
2022/01/09 02:36:37;;;;;;;5.03;2.95;;;2.60;92.00;;;;;;4929830;29;20035;-90
2022/01/09 02:39:03;;;;;;;8.68;3.13;;;2.60;91.80;;;;;;4922736;29;20028;-90
2022/01/09 02:41:29;;;;;;;6.88;3.03;;;2.60;92.10;;;;;;4922377;29;20040;-89
2022/01/09 02:43:55;;;;;;;4.60;2.88;;;2.60;92.20;;;;;;4929909;29;20028;-89
2022/01/09 02:46:52;;;;;;;5.25;3.05;;;2.60;92.20;;;;;;4931074;29;20099;-90
2022/01/09 02:49:17;;;;;;;7.07;3.20;;;2.60;92.10;;;;;;4930508;29;20039;-90
2022/01/09 02:51:45;;;;;;;4.25;3.00;;;2.60;92.10;;;;;;4934201;29;20035;-89
2022/01/09 02:56:55;;;;;;;9.05;2.97;;;2.60;92.10;;;;;;4923868;29;20079;-90
2022/01/09 02:59:20;;;;;;;5.00;2.85;;;2.60;91.80;;;;;;4934934;29;20100;-90
2022/01/09 03:01:46;;;;;;;3.88;2.40;;;2.70;91.70;;;;;;4934712;29;20115;-90
2022/01/09 03:04:11;;;;;;;5.40;3.42;;;2.70;91.60;;;;;;4933534;29;20028;-90
2022/01/09 03:06:37;;;;;;;5.65;3.30;;;2.70;91.20;;;;;;4935156;29;20042;-90
2022/01/09 03:09:05;;;;;;;5.10;2.40;;;2.70;91.10;;;;;;4922413;29;20035;-89
2022/01/09 03:11:32;;;;;;;6.35;2.72;;;2.80;91.20;;;;;;4934444;29;20028;-90
2022/01/09 03:13:57;;;;;;;5.13;2.80;;;2.80;91.20;;;;;;4934484;29;20503;-90
2022/01/09 03:16:23;;;;;;;6.70;2.60;;;2.80;91.20;;;;;;4934049;29;20031;-90
2022/01/09 03:18:48;;;;;;;5.90;2.42;;;2.80;91.40;;;;;;4934891;29;20034;-89
2022/01/09 03:21:14;;;;;;;4.80;2.22;;;2.80;91.50;;;;;;4929007;29;20050;-90
2022/01/09 03:23:39;;;;;;;5.70;2.90;;;2.70;91.70;;;;;;4934603;29;20056;-90
2022/01/09 03:26:08;;;;;;;5.65;2.78;;;2.70;92.00;;;;;;4919485;29;20071;-90
2022/01/09 03:28:35;;;;;;;4.50;2.17;;;2.80;92.10;;;;;;4934842;29;20040;-90
2022/01/09 03:31:00;;;;;;;4.70;2.30;;;2.70;92.20;;;;;;4933252;29;20040;-90
2022/01/09 03:33:26;;;;;;;4.07;2.33;;;2.70;92.20;;;;;;4950161;29;20448;-89
2022/01/09 03:35:51;;;;;;;4.88;2.50;;;2.70;92.20;;;;;;4933480;29;20066;-89
2022/01/09 03:38:17;;;;;;;6.00;2.58;;;2.70;92.50;;;;;;4927793;29;20499;-90
2022/01/09 03:40:43;;;;;;;6.03;2.60;;;2.60;92.80;;;;;;4933969;29;20038;-90
2022/01/09 03:43:08;;;;;;;5.97;2.85;;;2.60;93.20;;;;;;4934094;29;20036;-90
2022/01/09 03:45:34;;;;;;;5.20;2.80;;;2.50;93.60;;;;;;4932311;29;20036;-90
2022/01/09 03:47:59;;;;;;;4.53;2.75;;;2.50;93.80;;;;;;4924160;29;20082;-90
2022/01/09 03:50:25;;;;;;;8.15;3.35;;;2.40;94.00;;;;;;4946833;29;20031;-90
2022/01/09 03:52:51;;;;;;;6.72;2.97;;;2.30;94.20;;;;;;4942978;29;20110;-89
2022/01/09 03:55:19;;;;;;;8.27;3.00;;;2.30;94.30;;;;;;4927399;29;20024;-89
2022/01/09 03:57:45;;;;;;;6.63;3.40;;;2.30;94.40;;;;;;4930242;29;20384;-89
2022/01/09 04:00:15;;;;;;;6.18;3.67;;;2.20;94.60;;;;;;4946031;29;20543;-90
2022/01/09 04:02:42;;;;;;;9.93;3.77;;;2.20;94.70;;;;;;4943539;28;20040;-90
2022/01/09 04:05:08;;;;;;;5.63;3.20;;;2.20;94.80;;;;;;4933065;28;20179;-89
2022/01/09 04:07:35;;;;;;;5.40;3.05;;;2.20;94.90;;;;;;4932124;29;20039;-89
2022/01/09 04:10:01;;;;;;;7.45;3.10;;;2.20;95.00;;;;;;4948487;29;20027;-89
2022/01/09 04:12:36;;;;;;;8.13;3.58;;;2.20;95.10;;;;;;4932599;29;20032;-90
2022/01/09 04:15:06;;;;;;;5.97;3.33;;;2.10;95.20;;;;;;4946872;29;20432;-90
2022/01/09 04:20:04;;;;;;;8.00;3.05;;;2.10;95.40;;;;;;4918003;29;20025;-90
2022/01/09 04:22:29;;;;;;;4.78;3.38;;;2.10;95.50;;;;;;4924713;29;20036;-89
2022/01/09 04:24:55;;;;;;;6.00;3.75;;;2.00;95.60;;;;;;4916661;29;20362;-89
2022/01/09 04:27:20;;;;;;;7.68;4.30;;;2.00;95.60;;;;;;4919581;29;20043;-89
2022/01/09 04:29:46;;;;;;;7.90;4.28;;;2.00;95.70;;;;;;4933327;29;20038;-89
2022/01/09 04:32:11;;;;;;;6.18;3.72;;;2.00;95.80;;;;;;4930160;29;20055;-89
2022/01/09 04:34:37;;;;;;;8.15;4.25;;;1.90;95.90;;;;;;4924506;29;20063;-90
2022/01/09 04:37:03;;;;;;;6.15;4.13;;;1.90;95.90;;;;;;4920096;29;20454;-89
2022/01/09 04:39:29;;;;;;;8.23;3.80;;;1.90;96.00;;;;;;4930719;29;20036;-89
2022/01/09 04:41:54;;;;;;;6.55;4.45;;;2.00;96.10;;;;;;4932252;29;20127;-89
2022/01/09 04:44:20;;;;;;;7.03;3.90;;;1.90;96.10;;;;;;4930244;29;20039;-89
2022/01/09 04:46:48;;;;;;;7.45;4.32;;;1.90;96.20;;;;;;4928431;29;20397;-90
2022/01/09 04:49:14;;;;;;;7.13;4.07;;;1.90;96.20;;;;;;4932739;29;20027;-90
2022/01/09 04:51:39;;;;;;;9.98;4.47;;;1.90;96.20;;;;;;4931237;29;20074;-89
2022/01/09 04:54:05;;;;;;;8.27;4.72;;;1.90;96.30;;;;;;4932075;29;20031;-89
2022/01/09 04:56:31;;;;;;;8.95;4.90;;;1.90;96.30;;;;;;4932126;29;20039;-89
2022/01/09 04:58:57;;;;;;;7.55;4.38;;;1.90;96.30;;;;;;4932630;29;20044;-90
2022/01/09 05:01:22;;;;;;;9.38;4.60;;;1.90;96.40;;;;;;4931467;29;20043;-90
2022/01/09 05:03:48;;;;;;;6.40;4.07;;;1.90;96.40;;;;;;4932337;29;20031;-89
2022/01/09 05:06:16;;;;;;;6.47;4.35;;;1.90;96.40;;;;;;4941377;29;20028;-89
2022/01/09 05:08:41;;;;;;;9.20;4.97;;;1.90;96.50;;;;;;4922168;29;20035;-89
2022/01/09 05:11:06;;;;;;;6.45;4.10;;;1.90;96.50;;;;;;4933717;29;20028;-89
2022/01/09 05:13:32;;;;;;;6.82;4.53;;;1.90;96.50;;;;;;4931853;29;20024;-89
2022/01/09 05:15:59;;;;;;;8.07;4.63;;;1.90;96.50;;;;;;4920234;29;20095;-89
2022/01/09 05:18:25;;;;;;;7.85;4.57;;;1.90;96.50;;;;;;4924278;29;20079;-89
2022/01/09 05:20:51;;;;;;;8.10;4.43;;;1.90;96.50;;;;;;4927546;29;20043;-89
2022/01/09 05:23:16;;;;;;;7.82;4.78;;;1.90;96.50;;;;;;4931335;29;20024;-90
2022/01/09 05:25:52;;;;;;;7.20;4.65;;;1.90;96.50;;;;;;4932155;29;20032;-89
2022/01/09 05:28:17;;;;;;;7.90;4.35;;;1.90;96.50;;;;;;4929599;29;20404;-89
2022/01/09 05:30:43;;;;;;;8.60;4.53;;;1.90;96.50;;;;;;4938177;29;20038;-89
2022/01/09 05:33:08;;;;;;;7.93;4.55;;;1.90;96.50;;;;;;4919991;29;20055;-89
2022/01/09 05:35:36;;;;;;;9.70;4.63;;;2.00;96.50;;;;;;4918810;29;20028;-89
2022/01/09 05:38:02;;;;;;;8.68;4.95;;;2.00;96.60;;;;;;4927173;29;20122;-89
2022/01/09 05:40:30;;;;;;;7.18;4.85;;;2.00;96.60;;;;;;4928726;29;20116;-89
2022/01/09 05:42:55;;;;;;;6.15;4.03;;;2.00;96.60;;;;;;4918021;29;20118;-89
2022/01/09 05:45:21;;;;;;;6.82;4.22;;;2.00;96.60;;;;;;4930776;29;20118;-89
2022/01/09 05:47:49;;;;;;;6.90;4.50;;;2.00;96.60;;;;;;4943307;29;20087;-89
2022/01/09 05:50:15;;;;;;;8.95;4.93;;;2.00;96.60;;;;;;4932156;29;20148;-90
2022/01/09 05:52:42;;;;;;;6.88;4.78;;;2.00;96.70;;;;;;4930240;29;20579;-89
2022/01/09 05:55:08;;;;;;;7.75;4.32;;;2.00;96.70;;;;;;4932862;29;20257;-90
2022/01/09 05:57:36;;;;;;;6.97;4.05;;;2.00;96.70;;;;;;4928853;29;20025;-89
2022/01/09 06:00:04;;;;;;;6.85;4.57;;;2.00;96.80;;;;;;4928076;29;20056;-89
2022/01/09 06:02:34;;;;;;;8.35;4.95;;;2.00;96.80;;;;;;4924907;29;20141;-90
2022/01/09 06:05:02;;;;;;;7.72;4.57;;;2.00;96.80;;;;;;4929166;29;20055;-90
2022/01/09 06:07:30;;;;;;;7.95;4.10;;;2.00;96.80;;;;;;4925597;29;20036;-90
2022/01/09 06:09:58;;;;;;;9.43;5.28;;;2.00;96.80;;;;;;4931407;29;20051;-90
2022/01/09 06:12:31;;;;;;;7.45;4.93;;;2.10;96.80;;;;;;4933061;29;20036;-90
2022/01/09 06:14:59;;;;;;;10.48;5.50;;;2.00;96.80;;;;;;4932175;29;20028;-91
2022/01/09 06:17:25;;;;;;;9.65;5.03;;;2.10;96.90;;;;;;4932348;29;20082;-90
2022/01/09 06:19:51;;;;;;;7.50;5.40;;;2.10;96.90;;;;;;4932130;29;20035;-90
2022/01/09 06:22:18;;;;;;;6.85;4.70;;;2.10;96.80;;;;;;4933757;29;20087;-90
2022/01/09 06:24:46;;;;;;;8.75;5.13;;;2.10;96.90;;;;;;4935304;29;20028;-90
2022/01/09 06:27:14;;;;;;;8.15;5.15;;;2.10;96.90;;;;;;4936048;29;20399;-91
2022/01/09 06:29:45;;;;;;;7.00;4.75;;;2.10;96.90;;;;;;4935714;29;20082;-91
2022/01/09 06:32:13;;;;;;;9.35;4.65;;;2.10;97.00;;;;;;4934462;29;20043;-90
2022/01/09 06:34:41;;;;;;;8.82;4.80;;;2.10;96.90;;;;;;4935414;29;20031;-90
2022/01/09 06:37:12;;;;;;;9.45;5.00;;;2.10;97.00;;;;;;4940197;29;20084;-90
2022/01/09 06:39:45;;;;;;;;;;;2.00;97.00;;;;;;4945822;29;20035;-90
2022/01/09 06:42:21;;;;;;;7.40;4.50;;;2.00;97.00;;;;;;4947292;29;20375;-90
2022/01/09 06:44:57;;;;;;;8.63;4.68;;;2.00;97.00;;;;;;4943655;29;20082;-90
2022/01/09 06:47:27;;;;;;;6.90;4.45;;;2.00;97.00;;;;;;4939950;29;20039;-90
2022/01/09 06:50:02;;;;;;;7.45;4.53;;;2.00;97.00;;;;;;4933373;29;20507;-90
2022/01/09 06:52:28;;;;;;;6.45;4.60;;;2.00;97.00;;;;;;4941781;29;20398;-90
2022/01/09 06:54:53;;;;;;;7.35;4.68;;;2.00;97.00;;;;;;4940818;29;20032;-90
2022/01/09 06:57:19;;;;;;;7.40;4.88;;;2.00;97.00;;;;;;4931220;29;20031;-90
2022/01/09 06:59:47;;;;;;;6.07;4.40;;;1.90;97.00;;;;;;4921510;29;20028;-90
2022/01/09 07:02:13;;;;;;;7.45;4.57;;;1.90;97.00;;;;;;4932099;29;20079;-90
2022/01/09 07:04:38;;;;;;;6.20;4.30;;;1.90;97.00;;;;;;4931596;29;20038;-90
2022/01/09 07:07:05;;;;;;;8.43;5.13;;;1.90;97.00;;;;;;4922122;29;20283;-90
2022/01/09 07:09:30;;;;;;;7.43;4.85;;;1.90;97.00;;;;;;4927443;29;20034;-90
2022/01/09 07:11:56;;;;;;;7.20;5.18;;;1.90;97.00;;;;;;4924075;29;20399;-90
2022/01/09 07:14:21;;;;;;;7.38;4.60;;;1.80;97.00;;;;;;4934088;29;20479;-90
2022/01/09 07:16:47;;;;;;;8.38;5.30;;;1.80;97.00;;;;;;4920422;29;20548;-89
2022/01/09 07:19:12;;;;;;;8.05;5.25;;;1.80;97.00;;;;;;4923961;29;20034;-89
2022/01/09 07:21:38;;;;;;;8.50;5.60;;;1.80;97.10;;;;;;4946382;29;20032;-90
2022/01/09 07:24:04;;;;;;;7.85;5.28;;;1.70;97.10;;;;;;4933639;29;20032;-89
2022/01/09 07:26:29;;;;;;;7.90;5.50;;;1.70;97.10;;;;;;4933879;29;20035;-89
2022/01/09 07:28:55;;;;;;;8.27;5.45;;;1.70;97.10;;;;;;4934581;29;20028;-89
2022/01/09 07:31:20;;;;;;;7.82;5.20;;;1.70;97.20;;;;;;4932804;29;20036;-90
2022/01/09 07:33:46;;;;;;;8.65;5.22;;;1.60;97.20;;;;;;4932247;29;20157;-90
2022/01/09 07:36:11;;;;;;;8.27;5.72;;;1.70;97.20;;;;;;4923494;29;20020;-89
2022/01/09 07:38:37;;;;;;;9.27;5.13;;;1.70;97.20;;;;;;4943448;28;20489;-90
2022/01/09 07:41:02;;;;;;;8.80;5.15;;;1.70;97.20;;;;;;4935933;29;20123;-90
2022/01/09 07:43:28;;;;;;;8.60;5.25;;;1.70;97.20;;;;;;4934489;29;20023;-89
2022/01/09 07:45:53;;;;;;;8.00;5.82;;;1.70;97.30;;;;;;4923862;29;20118;-90
2022/01/09 07:48:23;;;;;;;9.30;6.00;;;1.70;97.30;;;;;;4932928;29;20055;-90
2022/01/09 07:50:49;;;;;;;8.18;5.88;;;1.70;97.30;;;;;;4930395;29;20024;-89
2022/01/09 07:53:17;;;;;;;12.25;6.05;;;1.70;97.30;;;;;;4929938;29;20035;-89
2022/01/09 07:55:42;;;;;;;9.60;5.85;;;1.80;97.30;;;;;;4933578;29;20472;-89
2022/01/09 07:58:08;;;;;;;8.57;5.60;;;1.70;97.30;;;;;;4933952;29;20072;-89
2022/01/09 08:00:34;;;;;;;9.27;6.00;;;1.80;97.40;;;;;;4927382;29;20172;-89
2022/01/09 08:02:59;;;;;;;10.93;6.20;;;1.80;97.40;;;;;;4926639;29;20036;-88
2022/01/09 08:05:25;;;;;;;9.80;5.80;;;1.80;97.40;;;;;;4930834;29;20023;-89
2022/01/09 08:07:50;;;;;;;8.85;5.65;;;1.80;97.40;;;;;;4921689;29;20342;-88
2022/01/09 08:10:16;;;;;;;12.63;5.85;;;1.80;97.40;;;;;;4922779;29;20047;-89
2022/01/09 08:12:41;;;;;;;9.13;6.38;;;1.80;97.40;;;;;;4931232;29;20020;-89
2022/01/09 08:15:08;;;;;;;9.27;6.50;;;1.90;97.40;;;;;;4931701;29;20024;-89
2022/01/09 08:17:33;;;;;;;9.20;6.05;;;1.90;97.40;;;;;;4935080;29;20039;-89
2022/01/09 08:19:59;;;;;;;8.85;6.10;;;2.00;97.40;;;;;;4922329;29;20032;-89
2022/01/09 08:22:29;;;;;;;9.23;6.47;;;2.00;97.50;;;;;;4932377;29;20032;-90
2022/01/09 08:24:54;;;;;;;8.50;5.82;;;2.00;97.50;;;;;;4942431;29;20035;-89
2022/01/09 08:27:20;;;;;;;9.32;6.03;;;2.00;97.50;;;;;;4930460;29;20484;-89
2022/01/09 08:29:46;;;;;;;10.70;7.03;;;2.10;97.50;;;;;;4931295;29;20032;-89
2022/01/09 08:32:13;;;;;;;15.57;6.22;;;2.10;97.50;;;;;;4926336;29;20027;-89
2022/01/09 08:34:39;;;;;;;10.00;6.35;;;2.10;97.50;;;;;;4932512;29;20065;-88
2022/01/09 08:37:09;;;;;;;10.55;6.25;;;2.10;97.50;;;;;;4932709;29;20483;-89
2022/01/09 08:39:35;;;;;;;10.73;6.65;;;2.10;97.50;;;;;;4948702;28;20039;-88
2022/01/09 08:42:00;;;;;;;8.45;6.07;;;2.10;97.50;;;;;;4923410;29;20043;-88
2022/01/09 08:44:26;;;;;;;9.93;6.72;;;2.20;97.50;;;;;;4929934;29;20560;-89
2022/01/09 08:46:51;;;;;;;8.60;5.95;;;2.20;97.50;;;;;;4933331;29;20059;-89
2022/01/09 08:49:17;;;;;;;9.68;6.70;;;2.20;97.50;;;;;;4935955;29;20065;-88
2022/01/09 08:51:42;;;;;;;11.00;7.00;;;2.20;97.50;;;;;;4921572;29;20036;-89
2022/01/09 08:54:08;;;;;;;9.63;6.30;;;2.20;97.50;;;;;;4925228;29;20036;-88
2022/01/09 08:56:36;;;;;;;8.77;6.45;;;2.30;97.50;;;;;;4930407;29;20102;-89
2022/01/09 08:59:01;;;;;;;10.00;5.93;;;2.30;97.50;;;;;;4928463;29;20027;-89
2022/01/09 09:01:27;;;;;;;8.75;5.90;;;2.30;97.50;;;;;;4930187;29;20032;-89
2022/01/09 09:03:55;;;;;;;9.07;5.78;;;2.30;97.40;;;;;;4930089;29;20038;-89
2022/01/09 09:06:20;;;;;;;8.07;5.68;;;2.40;97.50;;;;;;4928789;29;20027;-89
2022/01/09 09:08:46;;;;;;;9.20;6.70;;;2.40;97.40;;;;;;4924830;29;20036;-89
2022/01/09 09:11:15;;;;;;;8.77;6.07;;;2.40;97.40;;;;;;4926609;29;20453;-89
2022/01/09 09:13:40;;;;;;;9.05;5.90;;;2.40;97.40;;;;;;4924948;29;20149;-89
2022/01/09 09:16:08;;;;;;;8.45;6.10;;;2.40;97.40;;;;;;4926177;29;20584;-89
2022/01/09 09:18:34;;;;;;;8.65;5.70;;;2.40;97.40;;;;;;4933051;29;20130;-89
2022/01/09 09:20:59;;;;;;;9.98;5.90;;;2.40;97.40;;;;;;4931537;29;20527;-90
2022/01/09 09:23:25;;;;;;;8.40;5.63;;;2.40;97.40;;;;;;4925837;29;20075;-89
2022/01/09 09:25:51;;;;;;;9.23;6.07;;;2.40;97.40;;;;;;4941312;29;20074;-89
2022/01/09 09:28:17;;;;;;;9.93;6.65;;;2.40;97.40;;;;;;4930354;29;20039;-88
2022/01/09 09:30:43;;;;;;;10.70;6.22;;;2.40;97.40;;;;;;4943595;29;20122;-88
2022/01/09 09:33:09;;;;;;;9.57;6.38;;;2.40;97.40;;;;;;4930581;29;20167;-88
2022/01/09 09:35:35;;;;;;;7.97;5.63;;;2.40;97.50;;;;;;4926070;29;20032;-88
2022/01/09 09:38:01;;;;;;;9.20;6.40;;;2.40;97.40;;;;;;4929537;29;20039;-89
2022/01/09 09:40:26;;;;;;;8.95;6.03;;;2.40;97.50;;;;;;4930279;29;20075;-89
2022/01/09 09:42:53;;;;;;;9.13;6.35;;;2.50;97.40;;;;;;4924474;29;20024;-88
2022/01/09 09:45:19;;;;;;;9.27;6.63;;;2.50;97.50;;;;;;4921114;29;20028;-88
2022/01/09 09:47:45;;;;;;;8.80;5.90;;;2.50;97.50;;;;;;4917114;29;20028;-88
2022/01/09 09:50:13;;;;;;;9.30;6.15;;;2.50;97.50;;;;;;4932593;29;20083;-88
2022/01/09 09:52:41;;;;;;;9.23;6.63;;;2.50;97.50;;;;;;4924220;29;20039;-88
2022/01/09 09:55:07;;;;;;;8.43;5.90;;;2.50;97.50;;;;;;4927811;29;20032;-88
2022/01/09 09:57:32;;;;;;;8.82;5.85;;;2.50;97.50;;;;;;4916340;29;20042;-88
2022/01/09 10:00:08;;;;;;;7.90;5.70;;;2.50;97.50;;;;;;4931456;29;20378;-88
2022/01/09 10:03:03;;;;;;;7.95;5.40;;;2.50;97.50;;;;;;4929274;29;20488;-88
2022/01/09 10:05:37;;;;;;;8.32;5.82;;;2.60;97.60;;;;;;4926184;29;20035;-88
2022/01/09 10:08:15;;;;;;;9.70;6.07;;;2.60;97.60;;;;;;4930236;29;20110;-88
2022/01/09 10:10:41;;;;;;;9.50;6.45;;;2.60;97.60;;;;;;4927890;29;20396;-88
2022/01/09 10:13:15;;;;;;;10.40;6.80;;;2.60;97.60;;;;;;4926941;29;20031;-89
2022/01/09 10:15:55;;;;;;;10.23;6.57;;;2.60;97.60;;;;;;4931394;29;20043;-87
2022/01/09 10:18:56;;;;;;;9.82;6.68;;;2.60;97.70;;;;;;4929648;29;20155;-87
2022/01/09 10:21:25;;;;;;;13.07;6.93;;;2.70;97.70;;;;;;4912671;29;20028;-89
2022/01/09 10:24:08;;;;;;;9.90;6.90;;;2.70;97.70;;;;;;4924714;29;20067;-89
2022/01/09 10:26:40;;;;;;;9.45;6.57;;;2.70;97.70;;;;;;4929594;29;20055;-87
2022/01/09 10:29:08;;;;;;;10.50;7.18;;;2.70;97.70;;;;;;4922295;29;20028;-88
2022/01/09 10:31:49;;;;;;;12.98;7.32;;;2.70;97.70;;;;;;4934280;29;20028;-88
2022/01/09 10:34:18;;;;;;;13.52;7.43;;;2.80;97.80;;;;;;4925284;29;20461;-88
2022/01/09 10:36:51;;;;;;;12.20;7.88;;;2.80;97.80;;;;;;4923474;29;20119;-88
2022/01/09 10:39:39;;;;;;;11.43;7.95;;;2.80;97.80;;;;;;4922472;29;20056;-88
2022/01/09 10:42:06;;;;;;;11.63;7.82;;;2.80;97.80;;;;;;4921785;29;20755;-88
2022/01/09 10:44:35;;;;;;;12.90;8.05;;;2.80;97.80;;;;;;4917163;29;20035;-88
2022/01/09 10:47:05;;;;;;;12.57;8.13;;;2.90;97.90;;;;;;4928000;29;20106;-88
2022/01/09 10:49:48;;;;;;;14.68;8.73;;;3.00;98.00;;;;;;4926489;29;20468;-88
2022/01/09 10:52:27;;;;;;;15.30;8.82;;;3.00;98.00;;;;;;4919326;29;20029;-88
2022/01/09 10:54:58;;;;;;;20.05;9.55;;;3.10;98.00;;;;;;4929907;29;20067;-88
2022/01/09 10:57:26;;;;;;;17.02;9.35;;;3.20;98.00;;;;;;4925733;29;20064;-87
2022/01/09 10:59:52;;;;;;;16.05;9.38;;;3.20;98.00;;;;;;4927151;29;20039;-88
2022/01/09 11:02:19;;;;;;;18.67;10.45;;;3.30;98.00;;;;;;4918075;29;20228;-87
2022/01/09 11:04:47;;;;;;;21.42;10.45;;;3.30;98.00;;;;;;4929280;29;20384;-87
2022/01/09 11:07:13;;;;;;;20.83;9.95;;;3.40;98.00;;;;;;4936186;29;20396;-87
2022/01/09 11:09:41;;;;;;;18.52;9.77;;;3.40;98.00;;;;;;4929686;29;20063;-88
2022/01/09 11:12:08;;;;;;;17.52;9.80;;;3.40;98.10;;;;;;4927589;29;20039;-88
2022/01/09 11:14:40;;;;;;;20.48;9.50;;;3.50;98.10;;;;;;4930737;29;20042;-88
2022/01/09 11:17:07;;;;;;;14.77;8.23;;;3.50;98.10;;;;;;4936554;29;20038;-87
2022/01/09 11:19:34;;;;;;;12.32;8.30;;;3.60;98.10;;;;;;4931521;29;20071;-87
2022/01/09 11:22:03;;;;;;;19.83;9.27;;;3.60;98.10;;;;;;4921901;29;20496;-87
2022/01/09 11:24:31;;;;;;;18.95;8.57;;;3.80;98.10;;;;;;4927148;29;20027;-87
2022/01/09 11:27:41;;;;;;;19.17;8.25;;;3.90;98.10;;;;;;4932139;29;20031;-87
2022/01/09 11:30:14;;;;;;;21.92;7.55;;;3.90;98.10;;;;;;4928348;29;20556;-87
2022/01/09 11:33:08;;;;;;;15.50;6.93;;;3.90;98.10;;;;;;4934803;29;20027;-87
2022/01/09 11:35:48;;;;;;;20.23;6.28;;;4.00;98.10;;;;;;4934894;29;20028;-87
2022/01/09 11:38:50;;;;;;;19.02;6.85;;;4.10;98.10;;;;;;4932779;29;20028;-87
2022/01/09 11:41:24;;;;;;;21.40;5.72;;;4.20;98.10;;;;;;4935440;29;20024;-87
2022/01/09 11:44:09;;;;;;;15.75;4.70;;;4.20;98.10;;;;;;4927033;29;20031;-87
2022/01/09 11:47:04;;;;;;;19.35;4.57;;;4.30;98.10;;;;;;4940500;29;20032;-87
2022/01/09 11:49:38;;;;;;;12.90;4.18;;;4.40;98.10;;;;;;4934111;29;20091;-87
2022/01/09 11:52:04;;;;;;;17.05;4.13;;;4.50;98.00;;;;;;4933885;29;20031;-87
2022/01/09 11:54:47;;;;;;;16.15;4.38;;;4.50;98.00;;;;;;4931087;29;20580;-87
2022/01/09 11:57:18;;;;;;;17.20;3.80;;;4.60;97.90;;;;;;4927481;29;20055;-87
2022/01/09 11:59:51;;;;;;;14.45;3.08;;;4.60;97.80;;;;;;4924334;29;20046;-87
2022/01/09 12:02:16;;;;;;;10.73;2.70;;;4.60;97.70;;;;;;4924100;29;20055;-87
2022/01/09 12:04:42;;;;;;;10.73;2.78;;;4.60;97.60;;;;;;4926972;29;20547;-87
2022/01/09 12:07:11;;;;;;;11.32;2.45;;;4.70;97.40;;;;;;4925880;29;20544;-87
2022/01/09 12:09:42;;;;;;;15.30;2.50;;;4.70;97.30;;;;;;4929278;29;20036;-87
2022/01/09 12:12:11;;;;;;;11.63;2.00;;;4.70;97.00;;;;;;4928670;29;20024;-87
2022/01/09 12:14:53;;;;;;;10.38;2.22;;;4.70;97.00;;;;;;4929872;29;20083;-87
2022/01/09 12:17:27;;;;;;;8.50;1.60;;;4.70;96.70;;;;;;4932408;29;20042;-87
2022/01/09 12:20:05;;;;;;;9.57;1.73;;;4.70;96.40;;;;;;4920963;29;20039;-87
2022/01/09 12:22:46;;;;;;;7.57;1.95;;;4.80;96.30;;;;;;4922610;29;20036;-87
2022/01/09 12:25:24;;;;;;;8.63;1.42;;;4.70;96.00;;;;;;4922480;29;20038;-87
2022/01/09 12:28:05;;;;;;;6.45;2.15;;;4.70;96.00;;;;;;4932689;29;20047;-86
2022/01/09 12:30:31;;;;;;;5.75;1.33;;;4.60;96.10;;;;;;4929887;29;20031;-86
2022/01/09 12:32:57;;;;;;;8.68;1.83;;;4.60;96.10;;;;;;4929930;29;20060;-86
2022/01/09 12:35:23;;;;;;;7.60;1.38;;;4.70;96.10;;;;;;4935067;29;20059;-86
2022/01/09 12:37:55;;;;;;;5.15;1.90;;;4.60;96.00;;;;;;4936363;29;20032;-87
2022/01/09 12:40:22;;;;;;;8.18;1.98;;;4.60;95.90;;;;;;4918083;29;20444;-86
2022/01/09 12:42:50;;;;;;;7.45;2.92;;;4.60;96.00;;;;;;4927470;29;20024;-86
2022/01/09 12:45:19;;;;;;;10.20;1.88;;;4.60;95.80;;;;;;4919354;29;20036;-87
2022/01/09 12:47:45;;;;;;;7.47;2.78;;;4.50;96.00;;;;;;4931522;29;20036;-87
2022/01/09 12:50:11;;;;;;;7.07;2.05;;;4.50;96.20;;;;;;4932341;29;20031;-87
2022/01/09 12:52:36;;;;;;;8.45;1.60;;;4.50;96.30;;;;;;4942117;29;20024;-87
2022/01/09 12:55:07;;;;;;;5.55;2.00;;;4.50;96.30;;;;;;4920907;29;20110;-87
2022/01/09 12:57:52;;;;;;;5.18;1.42;;;4.50;96.50;;;;;;4933465;29;20043;-86
2022/01/09 13:00:29;;;;;;;6.90;1.52;;;4.50;96.60;;;;;;4934324;29;20043;-86
2022/01/09 13:02:56;;;;;;;6.13;1.40;;;4.60;96.60;;;;;;4932164;29;20031;-86
2022/01/09 13:05:27;;;;;;;8.95;1.80;;;4.50;96.70;;;;;;4935621;29;20035;-87